»·PEaware :: TPX433 KLAX-KLAS

TPX433 :: KLAX-KLAS

FLIGHT INFORMATION

Flight Status: Arrived
Operator: ATP Experience
More flights by this operator :: More flights under this callsign
Pilot: Dave P. (45)
Aircraft: BOEING 737-600
(B736)
More flights by this aircraft type
Origin: KLAX Los Angeles Intl
United States
Destination: KLAS McCarran Intl
United States
More flights between these airports :: More routes between these airports
Route: ORCKA3 MISEN KEPEC6
File this flight plan on PilotEdge
Remarks: PBN / A1B1C1D1S1S2 DOF / 181110 REG / N736PM OPR / TPX PER / C RMK / TCAS SIMBRIEF
Altitude:
(Current/Filed)
29,000ft
Speed:
(Current/Filed)
451kts
Departed: 10-Nov-18 01:01 PM
Arrived: 10-Nov-18 01:49 PM
Distance/Time
Traveled:
206nm/0:48
Distance/Time
To Go:
Arrived

Flight Plot

Page will automatically refresh every two minutes.

Flight plan parsing failed; only flown route is shown


Map Options




Map Legend


Flown Route
Filed Route
Departure Airport
Arrival Airport
Navaid (VOR, NDB)
Fix

Horizontal Profiles

Position Reports

Time Latitude Longitude Heading Altitude Ground
Speed
10-Nov-18 12:39 33.941164 -118.403730 263 133ft 0kts
10-Nov-18 12:40 33.941164 -118.403730 263 133ft 0kts
10-Nov-18 12:41 33.941164 -118.403730 263 133ft 0kts
10-Nov-18 12:42 33.941164 -118.403730 263 133ft 0kts
10-Nov-18 12:43 33.941164 -118.403730 263 133ft 0kts
10-Nov-18 12:44 33.941164 -118.403730 263 133ft 0kts
10-Nov-18 12:45 33.941164 -118.403730 263 133ft 0kts
10-Nov-18 12:46 33.941164 -118.403730 263 133ft 0kts
10-Nov-18 12:47 33.941164 -118.403730 263 133ft 0kts
10-Nov-18 12:48 33.941164 -118.403730 263 133ft 0kts
10-Nov-18 12:49 33.941164 -118.403730 263 133ft 0kts
10-Nov-18 12:50 33.941164 -118.403730 263 133ft 0kts
10-Nov-18 12:51 33.941164 -118.403730 263 133ft 0kts
10-Nov-18 12:52 33.941164 -118.403730 263 133ft 0kts
10-Nov-18 12:53 33.941330 -118.403294 220 133ft 2kts
10-Nov-18 12:54 33.941557 -118.403158 193 133ft 0kts
10-Nov-18 12:55 33.941557 -118.403158 193 133ft 0kts
10-Nov-18 12:56 33.939856 -118.402997 171 133ft 0kts
10-Nov-18 12:57 33.939855 -118.402997 171 133ft 0kts
10-Nov-18 12:58 33.939853 -118.402997 171 133ft 0kts
10-Nov-18 12:59 33.938603 -118.402052 82 133ft 14kts
10-Nov-18 13:00 33.939342 -118.394832 83 133ft 24kts
10-Nov-18 13:01 33.940082 -118.387561 82 133ft 23kts
10-Nov-18 13:02 33.940741 -118.380685 111 133ft 7kts
10-Nov-18 13:03 33.940199 -118.380202 174 133ft 10kts
10-Nov-18 13:04 33.938719 -118.391812 262 134ft 123kts
10-Nov-18 13:05 33.933677 -118.441329 262 2179ft 156kts
10-Nov-18 13:06 33.916800 -118.506053 248 3497ft 241kts
10-Nov-18 13:07 33.889174 -118.587880 248 6599ft 272kts
10-Nov-18 13:08 33.826495 -118.617228 148 9965ft 299kts
10-Nov-18 13:09 33.805137 -118.520647 64 11935ft 358kts
10-Nov-18 13:10 33.883332 -118.447422 16 14908ft 370kts
10-Nov-18 13:11 33.967924 -118.374432 54 17963ft 398kts
10-Nov-18 13:12 34.030515 -118.260761 53 19881ft 412kts
10-Nov-18 13:13 34.096296 -118.144573 53 22618ft 426kts
10-Nov-18 13:14 34.164247 -118.024024 53 25001ft 441kts
10-Nov-18 13:15 34.234447 -117.899612 53 27079ft 455kts
10-Nov-18 13:16 34.305732 -117.772068 53 28950ft 461kts
10-Nov-18 13:17 34.378380 -117.644321 51 29044ft 457kts
10-Nov-18 13:18 34.452816 -117.520019 52 29061ft 456kts
10-Nov-18 13:19 34.527049 -117.395006 52 29076ft 456kts
10-Nov-18 13:20 34.601249 -117.270203 52 29078ft 456kts
10-Nov-18 13:21 34.675379 -117.144878 52 29085ft 456kts
10-Nov-18 13:22 34.749252 -117.019611 52 29079ft 456kts
10-Nov-18 13:23 34.822769 -116.894297 52 29066ft 455kts
10-Nov-18 13:24 34.896147 -116.768404 52 29060ft 455kts
10-Nov-18 13:25 34.968664 -116.641825 53 29061ft 455kts
10-Nov-18 13:26 35.027614 -116.537114 53 26936ft 445kts
10-Nov-18 13:27 35.108843 -116.396568 46 24164ft 423kts
10-Nov-18 13:28 35.177032 -116.309981 42 22646ft 423kts
10-Nov-18 13:29 35.258375 -116.208002 43 21085ft 414kts
10-Nov-18 13:30 35.350810 -116.091572 42 19308ft 404kts
10-Nov-18 13:31 35.415502 -116.010236 42 18067ft 396kts
10-Nov-18 13:32 35.491680 -115.914188 42 16540ft 387kts
10-Nov-18 13:33 35.565549 -115.820365 43 15115ft 377kts
10-Nov-18 13:34 35.634684 -115.732162 43 13782ft 339kts
10-Nov-18 13:35 35.696197 -115.653633 43 12995ft 306kts
10-Nov-18 13:36 35.758746 -115.582207 19 12984ft 303kts
10-Nov-18 13:37 35.841192 -115.570465 359 12995ft 298kts
10-Nov-18 13:38 35.924081 -115.566166 0 12995ft 298kts
10-Nov-18 13:39 35.991549 -115.515583 67 12474ft 321kts
10-Nov-18 13:40 36.018957 -115.413542 66 11393ft 300kts
10-Nov-18 13:41 36.027582 -115.316318 95 10302ft 281kts
10-Nov-18 13:42 36.020029 -115.221978 95 9212ft 272kts
10-Nov-18 13:43 36.013747 -115.131504 95 8442ft 242kts
10-Nov-18 13:44 36.008846 -115.055235 94 7311ft 216kts
10-Nov-18 13:45 36.004636 -114.982193 94 5849ft 206kts
10-Nov-18 13:46 36.008375 -114.917778 37 4630ft 190kts
10-Nov-18 13:47 36.055689 -114.924192 312 4458ft 178kts
10-Nov-18 13:48 36.074096 -114.978981 269 4450ft 182kts
10-Nov-18 13:49 36.073733 -115.040281 269 3533ft 169kts
10-Nov-18 13:50 36.073683 -115.093841 269 2701ft 140kts
10-Nov-18 13:51 36.073652 -115.137895 270 2189ft 65kts
10-Nov-18 13:52 36.075061 -115.146336 337 2188ft 12kts
10-Nov-18 13:53 36.077515 -115.144440 92 2188ft 21kts
10-Nov-18 13:54 36.078234 -115.140135 89 2188ft 12kts
10-Nov-18 13:55 36.080128 -115.138908 318 2188ft 5kts
10-Nov-18 13:56 36.080309 -115.139115 317 2188ft 0kts
10-Nov-18 13:57 36.080309 -115.139115 317 2188ft 0kts
10-Nov-18 13:58 36.080309 -115.139115 317 2189ft 0kts

Navigation Log

Ident Type
Flight plan parsing failed, navigation log unavailable